sensor_id;sensor_type;location;lat;lon;timestamp;P1;durP1;ratioP1;P2;durP2;ratioP2
27999;SDS011;15328;50.860;10.562;2023-09-18T00:04:11;3.92;;;3.45;;
27999;SDS011;15328;50.860;10.562;2023-09-18T00:09:12;3.90;;;3.50;;
27999;SDS011;15328;50.860;10.562;2023-09-18T00:14:13;4.13;;;3.15;;
27999;SDS011;15328;50.860;10.562;2023-09-18T00:19:14;3.63;;;3.27;;
27999;SDS011;15328;50.860;10.562;2023-09-18T00:24:14;3.90;;;3.50;;
27999;SDS011;15328;50.860;10.562;2023-09-18T00:29:15;3.80;;;3.40;;
27999;SDS011;15328;50.860;10.562;2023-09-18T00:34:15;4.40;;;3.60;;
27999;SDS011;15328;50.860;10.562;2023-09-18T00:39:16;4.38;;;3.95;;
27999;SDS011;15328;50.860;10.562;2023-09-18T00:44:16;3.40;;;3.10;;
27999;SDS011;15328;50.860;10.562;2023-09-18T00:49:17;3.73;;;3.37;;
27999;SDS011;15328;50.860;10.562;2023-09-18T00:54:18;5.25;;;3.97;;
27999;SDS011;15328;50.860;10.562;2023-09-18T00:59:20;3.97;;;3.58;;
27999;SDS011;15328;50.860;10.562;2023-09-18T01:04:21;3.40;;;3.10;;
27999;SDS011;15328;50.860;10.562;2023-09-18T01:09:22;4.18;;;3.50;;
27999;SDS011;15328;50.860;10.562;2023-09-18T01:19:40;3.50;;;3.00;;
27999;SDS011;15328;50.860;10.562;2023-09-18T01:24:43;4.43;;;3.60;;
27999;SDS011;15328;50.860;10.562;2023-09-18T01:29:45;5.75;;;4.30;;
27999;SDS011;15328;50.860;10.562;2023-09-18T01:34:46;4.20;;;3.80;;
27999;SDS011;15328;50.860;10.562;2023-09-18T01:39:49;4.38;;;3.88;;
27999;SDS011;15328;50.860;10.562;2023-09-18T01:44:51;4.85;;;3.60;;
27999;SDS011;15328;50.860;10.562;2023-09-18T01:49:53;4.25;;;3.85;;
27999;SDS011;15328;50.860;10.562;2023-09-18T01:54:53;4.17;;;3.60;;
27999;SDS011;15328;50.860;10.562;2023-09-18T01:59:54;4.13;;;3.72;;
27999;SDS011;15328;50.860;10.562;2023-09-18T02:04:54;3.60;;;3.17;;
27999;SDS011;15328;50.860;10.562;2023-09-18T02:09:55;4.00;;;3.60;;
27999;SDS011;15328;50.860;10.562;2023-09-18T02:14:55;3.70;;;3.40;;
27999;SDS011;15328;50.860;10.562;2023-09-18T02:19:58;3.78;;;3.40;;
27999;SDS011;15328;50.860;10.562;2023-09-18T02:25:00;4.00;;;3.30;;
27999;SDS011;15328;50.860;10.562;2023-09-18T02:30:01;4.15;;;3.72;;
27999;SDS011;15328;50.860;10.562;2023-09-18T02:35:01;4.30;;;3.67;;
27999;SDS011;15328;50.860;10.562;2023-09-18T02:40:02;4.20;;;3.80;;
27999;SDS011;15328;50.860;10.562;2023-09-18T02:45:05;3.75;;;3.30;;
27999;SDS011;15328;50.860;10.562;2023-09-18T02:50:06;3.92;;;3.53;;
27999;SDS011;15328;50.860;10.562;2023-09-18T02:55:07;3.92;;;3.53;;
27999;SDS011;15328;50.860;10.562;2023-09-18T03:00:09;4.18;;;3.65;;
27999;SDS011;15328;50.860;10.562;2023-09-18T03:05:10;4.05;;;3.65;;
27999;SDS011;15328;50.860;10.562;2023-09-18T03:10:10;5.20;;;4.00;;
27999;SDS011;15328;50.860;10.562;2023-09-18T03:15:13;3.97;;;3.58;;
27999;SDS011;15328;50.860;10.562;2023-09-18T03:20:14;3.97;;;3.50;;
27999;SDS011;15328;50.860;10.562;2023-09-18T03:25:14;4.37;;;3.30;;
27999;SDS011;15328;50.860;10.562;2023-09-18T03:30:14;5.65;;;3.30;;
27999;SDS011;15328;50.860;10.562;2023-09-18T03:35:15;4.38;;;3.65;;
27999;SDS011;15328;50.860;10.562;2023-09-18T03:40:19;3.15;;;2.80;;
27999;SDS011;15328;50.860;10.562;2023-09-18T03:45:20;3.20;;;2.78;;
27999;SDS011;15328;50.860;10.562;2023-09-18T03:50:21;2.90;;;2.60;;
27999;SDS011;15328;50.860;10.562;2023-09-18T03:55:21;4.07;;;2.60;;
27999;SDS011;15328;50.860;10.562;2023-09-18T04:00:22;3.67;;;2.90;;
27999;SDS011;15328;50.860;10.562;2023-09-18T04:05:23;3.20;;;2.90;;
27999;SDS011;15328;50.860;10.562;2023-09-18T04:10:23;3.08;;;2.78;;
27999;SDS011;15328;50.860;10.562;2023-09-18T04:15:24;2.80;;;2.50;;
27999;SDS011;15328;50.860;10.562;2023-09-18T04:20:25;3.00;;;2.60;;
27999;SDS011;15328;50.860;10.562;2023-09-18T04:25:27;2.53;;;2.25;;
27999;SDS011;15328;50.860;10.562;2023-09-18T04:30:27;2.33;;;2.13;;
27999;SDS011;15328;50.860;10.562;2023-09-18T04:35:28;2.80;;;2.20;;
27999;SDS011;15328;50.860;10.562;2023-09-18T04:40:28;2.67;;;2.17;;
27999;SDS011;15328;50.860;10.562;2023-09-18T04:45:33;3.17;;;2.72;;
27999;SDS011;15328;50.860;10.562;2023-09-18T04:50:33;4.95;;;2.90;;
27999;SDS011;15328;50.860;10.562;2023-09-18T04:55:34;5.25;;;3.63;;
27999;SDS011;15328;50.860;10.562;2023-09-18T05:00:35;4.20;;;3.28;;
27999;SDS011;15328;50.860;10.562;2023-09-18T05:05:35;3.90;;;3.10;;
27999;SDS011;15328;50.860;10.562;2023-09-18T05:10:36;3.33;;;2.88;;
27999;SDS011;15328;50.860;10.562;2023-09-18T05:15:37;3.38;;;3.08;;
27999;SDS011;15328;50.860;10.562;2023-09-18T05:20:38;4.45;;;3.13;;
27999;SDS011;15328;50.860;10.562;2023-09-18T05:25:39;3.97;;;3.10;;
27999;SDS011;15328;50.860;10.562;2023-09-18T05:30:42;4.00;;;3.33;;
27999;SDS011;15328;50.860;10.562;2023-09-18T05:35:43;4.68;;;3.45;;
27999;SDS011;15328;50.860;10.562;2023-09-18T05:40:44;6.03;;;3.13;;
27999;SDS011;15328;50.860;10.562;2023-09-18T05:45:45;5.63;;;3.90;;
27999;SDS011;15328;50.860;10.562;2023-09-18T05:50:45;4.82;;;3.00;;
27999;SDS011;15328;50.860;10.562;2023-09-18T05:55:46;6.00;;;3.10;;
27999;SDS011;15328;50.860;10.562;2023-09-18T06:00:47;4.38;;;2.80;;
27999;SDS011;15328;50.860;10.562;2023-09-18T06:05:48;4.05;;;2.55;;
27999;SDS011;15328;50.860;10.562;2023-09-18T06:10:48;4.47;;;2.40;;
27999;SDS011;15328;50.860;10.562;2023-09-18T06:15:49;5.70;;;2.80;;
27999;SDS011;15328;50.860;10.562;2023-09-18T06:20:50;7.78;;;3.15;;
27999;SDS011;15328;50.860;10.562;2023-09-18T06:25:51;6.07;;;3.22;;
27999;SDS011;15328;50.860;10.562;2023-09-18T06:30:56;6.22;;;2.97;;
27999;SDS011;15328;50.860;10.562;2023-09-18T06:35:56;5.32;;;3.10;;
27999;SDS011;15328;50.860;10.562;2023-09-18T06:40:57;4.55;;;3.00;;
27999;SDS011;15328;50.860;10.562;2023-09-18T06:45:57;6.60;;;3.23;;
27999;SDS011;15328;50.860;10.562;2023-09-18T06:51:00;5.57;;;3.30;;
27999;SDS011;15328;50.860;10.562;2023-09-18T06:56:00;5.35;;;3.28;;
27999;SDS011;15328;50.860;10.562;2023-09-18T07:01:01;6.40;;;3.60;;
27999;SDS011;15328;50.860;10.562;2023-09-18T07:06:02;7.65;;;3.50;;
27999;SDS011;15328;50.860;10.562;2023-09-18T07:11:05;6.13;;;3.03;;
27999;SDS011;15328;50.860;10.562;2023-09-18T07:16:06;4.63;;;2.92;;
27999;SDS011;15328;50.860;10.562;2023-09-18T07:21:06;6.32;;;3.22;;
27999;SDS011;15328;50.860;10.562;2023-09-18T07:26:08;4.82;;;3.22;;
27999;SDS011;15328;50.860;10.562;2023-09-18T07:31:09;4.68;;;2.72;;
27999;SDS011;15328;50.860;10.562;2023-09-18T07:36:09;5.10;;;3.15;;
27999;SDS011;15328;50.860;10.562;2023-09-18T07:41:10;4.80;;;3.20;;
27999;SDS011;15328;50.860;10.562;2023-09-18T07:46:10;4.95;;;2.85;;
27999;SDS011;15328;50.860;10.562;2023-09-18T07:51:11;5.85;;;2.80;;
27999;SDS011;15328;50.860;10.562;2023-09-18T07:56:12;5.00;;;3.17;;
27999;SDS011;15328;50.860;10.562;2023-09-18T08:01:12;6.20;;;3.17;;
27999;SDS011;15328;50.860;10.562;2023-09-18T08:06:16;3.70;;;3.13;;
27999;SDS011;15328;50.860;10.562;2023-09-18T08:11:19;5.80;;;3.42;;
27999;SDS011;15328;50.860;10.562;2023-09-18T08:16:19;4.95;;;3.40;;
27999;SDS011;15328;50.860;10.562;2023-09-18T08:21:19;6.63;;;3.60;;
27999;SDS011;15328;50.860;10.562;2023-09-18T08:26:20;5.03;;;3.33;;
27999;SDS011;15328;50.860;10.562;2023-09-18T08:31:20;5.10;;;3.70;;
27999;SDS011;15328;50.860;10.562;2023-09-18T08:36:21;6.17;;;3.63;;
27999;SDS011;15328;50.860;10.562;2023-09-18T08:41:22;3.60;;;3.15;;
27999;SDS011;15328;50.860;10.562;2023-09-18T08:46:26;8.10;;;3.63;;
27999;SDS011;15328;50.860;10.562;2023-09-18T08:51:27;6.17;;;3.43;;
27999;SDS011;15328;50.860;10.562;2023-09-18T08:56:28;6.03;;;3.25;;
27999;SDS011;15328;50.860;10.562;2023-09-18T09:01:29;8.20;;;3.85;;
27999;SDS011;15328;50.860;10.562;2023-09-18T09:06:29;4.87;;;3.20;;
27999;SDS011;15328;50.860;10.562;2023-09-18T09:11:30;5.93;;;3.40;;
27999;SDS011;15328;50.860;10.562;2023-09-18T09:16:31;6.38;;;3.67;;
27999;SDS011;15328;50.860;10.562;2023-09-18T09:21:39;4.82;;;3.10;;
27999;SDS011;15328;50.860;10.562;2023-09-18T09:26:41;4.93;;;3.53;;
27999;SDS011;15328;50.860;10.562;2023-09-18T09:31:42;4.43;;;3.45;;
27999;SDS011;15328;50.860;10.562;2023-09-18T09:36:53;5.07;;;3.50;;
27999;SDS011;15328;50.860;10.562;2023-09-18T09:41:54;6.28;;;3.35;;
27999;SDS011;15328;50.860;10.562;2023-09-18T09:46:55;6.93;;;3.50;;
27999;SDS011;15328;50.860;10.562;2023-09-18T09:51:55;5.47;;;3.10;;
27999;SDS011;15328;50.860;10.562;2023-09-18T09:57:00;8.93;;;3.75;;
27999;SDS011;15328;50.860;10.562;2023-09-18T10:02:06;6.05;;;3.30;;
27999;SDS011;15328;50.860;10.562;2023-09-18T10:07:09;6.05;;;3.50;;
27999;SDS011;15328;50.860;10.562;2023-09-18T10:12:10;5.50;;;3.85;;
27999;SDS011;15328;50.860;10.562;2023-09-18T10:17:16;8.55;;;3.63;;
27999;SDS011;15328;50.860;10.562;2023-09-18T10:22:31;5.32;;;3.67;;
27999;SDS011;15328;50.860;10.562;2023-09-18T10:27:38;5.88;;;3.55;;
27999;SDS011;15328;50.860;10.562;2023-09-18T10:32:40;5.03;;;3.30;;
27999;SDS011;15328;50.860;10.562;2023-09-18T10:37:42;7.32;;;3.63;;
27999;SDS011;15328;50.860;10.562;2023-09-18T10:42:45;5.88;;;3.17;;
27999;SDS011;15328;50.860;10.562;2023-09-18T10:47:48;7.10;;;3.58;;
27999;SDS011;15328;50.860;10.562;2023-09-18T10:52:49;5.13;;;3.35;;
27999;SDS011;15328;50.860;10.562;2023-09-18T10:57:54;7.05;;;3.28;;
27999;SDS011;15328;50.860;10.562;2023-09-18T11:03:12;5.63;;;3.30;;
27999;SDS011;15328;50.860;10.562;2023-09-18T11:08:23;4.63;;;3.35;;
27999;SDS011;15328;50.860;10.562;2023-09-18T11:13:28;5.95;;;3.00;;
27999;SDS011;15328;50.860;10.562;2023-09-18T11:18:33;5.20;;;3.42;;
27999;SDS011;15328;50.860;10.562;2023-09-18T11:23:35;5.10;;;3.33;;
27999;SDS011;15328;50.860;10.562;2023-09-18T11:28:38;4.63;;;2.95;;
27999;SDS011;15328;50.860;10.562;2023-09-18T11:33:39;5.78;;;3.15;;
27999;SDS011;15328;50.860;10.562;2023-09-18T11:49:13;7.47;;;3.05;;
27999;SDS011;15328;50.860;10.562;2023-09-18T11:54:14;4.90;;;2.95;;
27999;SDS011;15328;50.860;10.562;2023-09-18T11:59:16;4.95;;;2.90;;
27999;SDS011;15328;50.860;10.562;2023-09-18T12:04:27;4.43;;;3.00;;
27999;SDS011;15328;50.860;10.562;2023-09-18T12:09:29;4.38;;;2.97;;
27999;SDS011;15328;50.860;10.562;2023-09-18T12:14:31;6.20;;;2.97;;
27999;SDS011;15328;50.860;10.562;2023-09-18T12:19:33;5.35;;;2.70;;
27999;SDS011;15328;50.860;10.562;2023-09-18T12:24:35;4.03;;;2.70;;
27999;SDS011;15328;50.860;10.562;2023-09-18T12:29:35;4.32;;;2.50;;
27999;SDS011;15328;50.860;10.562;2023-09-18T12:34:36;4.03;;;2.25;;
27999;SDS011;15328;50.860;10.562;2023-09-18T12:39:36;4.22;;;2.58;;
27999;SDS011;15328;50.860;10.562;2023-09-18T12:44:37;6.10;;;2.60;;
27999;SDS011;15328;50.860;10.562;2023-09-18T12:49:38;4.65;;;2.50;;
27999;SDS011;15328;50.860;10.562;2023-09-18T12:54:43;4.32;;;2.50;;
27999;SDS011;15328;50.860;10.562;2023-09-18T12:59:54;4.70;;;2.10;;
27999;SDS011;15328;50.860;10.562;2023-09-18T13:04:55;6.35;;;2.25;;
27999;SDS011;15328;50.860;10.562;2023-09-18T13:10:00;4.10;;;2.10;;
27999;SDS011;15328;50.860;10.562;2023-09-18T13:15:08;6.07;;;2.33;;
27999;SDS011;15328;50.860;10.562;2023-09-18T13:25:43;4.38;;;2.33;;
27999;SDS011;15328;50.860;10.562;2023-09-18T13:30:48;4.80;;;1.70;;
27999;SDS011;15328;50.860;10.562;2023-09-18T13:35:48;3.42;;;1.60;;
27999;SDS011;15328;50.860;10.562;2023-09-18T13:40:56;2.95;;;1.60;;
27999;SDS011;15328;50.860;10.562;2023-09-18T13:46:18;3.92;;;1.70;;
27999;SDS011;15328;50.860;10.562;2023-09-18T13:51:20;3.53;;;1.67;;
27999;SDS011;15328;50.860;10.562;2023-09-18T13:56:21;3.03;;;1.73;;
27999;SDS011;15328;50.860;10.562;2023-09-18T14:01:22;3.78;;;1.60;;
27999;SDS011;15328;50.860;10.562;2023-09-18T14:06:25;4.28;;;1.38;;
27999;SDS011;15328;50.860;10.562;2023-09-18T14:11:25;3.30;;;1.10;;
27999;SDS011;15328;50.860;10.562;2023-09-18T14:16:26;2.45;;;1.42;;
27999;SDS011;15328;50.860;10.562;2023-09-18T14:21:26;2.55;;;1.45;;
27999;SDS011;15328;50.860;10.562;2023-09-18T14:26:29;1.95;;;1.00;;
27999;SDS011;15328;50.860;10.562;2023-09-18T14:31:30;1.98;;;1.30;;
27999;SDS011;15328;50.860;10.562;2023-09-18T14:36:30;4.22;;;1.67;;
27999;SDS011;15328;50.860;10.562;2023-09-18T14:41:32;3.38;;;1.50;;
27999;SDS011;15328;50.860;10.562;2023-09-18T14:46:33;3.53;;;1.47;;
27999;SDS011;15328;50.860;10.562;2023-09-18T14:51:34;5.05;;;1.60;;
27999;SDS011;15328;50.860;10.562;2023-09-18T14:56:34;3.53;;;1.40;;
27999;SDS011;15328;50.860;10.562;2023-09-18T15:01:35;4.97;;;1.33;;
27999;SDS011;15328;50.860;10.562;2023-09-18T15:06:35;3.33;;;1.40;;
27999;SDS011;15328;50.860;10.562;2023-09-18T15:11:36;3.58;;;1.50;;
27999;SDS011;15328;50.860;10.562;2023-09-18T15:16:36;2.27;;;1.10;;
27999;SDS011;15328;50.860;10.562;2023-09-18T15:21:37;4.53;;;1.40;;
27999;SDS011;15328;50.860;10.562;2023-09-18T15:26:40;3.47;;;1.20;;
27999;SDS011;15328;50.860;10.562;2023-09-18T15:31:40;4.97;;;1.50;;
27999;SDS011;15328;50.860;10.562;2023-09-18T15:36:41;2.85;;;1.23;;
27999;SDS011;15328;50.860;10.562;2023-09-18T15:41:41;4.17;;;1.67;;
27999;SDS011;15328;50.860;10.562;2023-09-18T15:46:41;3.45;;;1.90;;
27999;SDS011;15328;50.860;10.562;2023-09-18T15:52:00;5.15;;;1.63;;
27999;SDS011;15328;50.860;10.562;2023-09-18T15:57:03;4.30;;;1.45;;
27999;SDS011;15328;50.860;10.562;2023-09-18T16:02:03;2.88;;;1.20;;
27999;SDS011;15328;50.860;10.562;2023-09-18T16:07:06;4.70;;;1.40;;
27999;SDS011;15328;50.860;10.562;2023-09-18T16:12:12;3.50;;;1.33;;
27999;SDS011;15328;50.860;10.562;2023-09-18T16:17:13;3.75;;;1.45;;
27999;SDS011;15328;50.860;10.562;2023-09-18T16:22:13;3.47;;;1.40;;
27999;SDS011;15328;50.860;10.562;2023-09-18T16:27:15;2.75;;;1.10;;
27999;SDS011;15328;50.860;10.562;2023-09-18T16:32:16;5.30;;;1.40;;
27999;SDS011;15328;50.860;10.562;2023-09-18T16:37:16;2.75;;;1.20;;
27999;SDS011;15328;50.860;10.562;2023-09-18T16:42:16;3.75;;;1.35;;
27999;SDS011;15328;50.860;10.562;2023-09-18T16:47:17;3.10;;;1.13;;
27999;SDS011;15328;50.860;10.562;2023-09-18T16:52:18;3.88;;;1.63;;
27999;SDS011;15328;50.860;10.562;2023-09-18T16:57:20;4.50;;;1.40;;
27999;SDS011;15328;50.860;10.562;2023-09-18T17:02:20;2.85;;;1.13;;
27999;SDS011;15328;50.860;10.562;2023-09-18T17:07:20;3.30;;;1.50;;
27999;SDS011;15328;50.860;10.562;2023-09-18T17:12:21;3.60;;;1.40;;
27999;SDS011;15328;50.860;10.562;2023-09-18T17:17:22;4.07;;;1.47;;
27999;SDS011;15328;50.860;10.562;2023-09-18T17:22:23;3.17;;;1.40;;
27999;SDS011;15328;50.860;10.562;2023-09-18T17:27:23;3.50;;;1.42;;
27999;SDS011;15328;50.860;10.562;2023-09-18T17:32:23;4.77;;;1.47;;
27999;SDS011;15328;50.860;10.562;2023-09-18T17:37:24;3.33;;;1.50;;
27999;SDS011;15328;50.860;10.562;2023-09-18T17:42:25;3.97;;;1.40;;
27999;SDS011;15328;50.860;10.562;2023-09-18T17:47:26;3.20;;;1.48;;
27999;SDS011;15328;50.860;10.562;2023-09-18T17:52:27;4.10;;;1.20;;
27999;SDS011;15328;50.860;10.562;2023-09-18T17:57:27;5.40;;;1.50;;
27999;SDS011;15328;50.860;10.562;2023-09-18T18:02:27;3.58;;;1.30;;
27999;SDS011;15328;50.860;10.562;2023-09-18T18:07:28;5.60;;;1.50;;
27999;SDS011;15328;50.860;10.562;2023-09-18T18:12:29;5.28;;;1.58;;
27999;SDS011;15328;50.860;10.562;2023-09-18T18:17:29;3.90;;;1.60;;
27999;SDS011;15328;50.860;10.562;2023-09-18T18:22:29;3.00;;;1.33;;
27999;SDS011;15328;50.860;10.562;2023-09-18T18:27:31;4.65;;;1.67;;
27999;SDS011;15328;50.860;10.562;2023-09-18T18:32:34;3.72;;;1.98;;
27999;SDS011;15328;50.860;10.562;2023-09-18T18:37:34;3.25;;;1.83;;
27999;SDS011;15328;50.860;10.562;2023-09-18T18:42:34;5.23;;;1.40;;
27999;SDS011;15328;50.860;10.562;2023-09-18T18:47:35;3.10;;;1.60;;
27999;SDS011;15328;50.860;10.562;2023-09-18T18:52:35;4.05;;;1.42;;
27999;SDS011;15328;50.860;10.562;2023-09-18T18:57:36;2.53;;;1.10;;
27999;SDS011;15328;50.860;10.562;2023-09-18T19:02:37;2.10;;;1.10;;
27999;SDS011;15328;50.860;10.562;2023-09-18T19:07:39;2.80;;;1.20;;
27999;SDS011;15328;50.860;10.562;2023-09-18T19:12:39;3.08;;;1.27;;
27999;SDS011;15328;50.860;10.562;2023-09-18T19:17:40;5.40;;;1.48;;
27999;SDS011;15328;50.860;10.562;2023-09-18T19:22:41;2.15;;;1.20;;
27999;SDS011;15328;50.860;10.562;2023-09-18T19:27:41;2.58;;;1.00;;
27999;SDS011;15328;50.860;10.562;2023-09-18T19:32:42;1.85;;;0.95;;
27999;SDS011;15328;50.860;10.562;2023-09-18T19:37:42;1.80;;;1.00;;
27999;SDS011;15328;50.860;10.562;2023-09-18T19:42:42;3.47;;;1.00;;
27999;SDS011;15328;50.860;10.562;2023-09-18T19:47:43;2.37;;;1.00;;
27999;SDS011;15328;50.860;10.562;2023-09-18T19:52:43;2.80;;;1.20;;
27999;SDS011;15328;50.860;10.562;2023-09-18T19:57:43;3.95;;;0.90;;
27999;SDS011;15328;50.860;10.562;2023-09-18T20:02:44;4.00;;;1.00;;
27999;SDS011;15328;50.860;10.562;2023-09-18T20:07:46;3.90;;;1.20;;
27999;SDS011;15328;50.860;10.562;2023-09-18T20:12:47;3.63;;;0.95;;
27999;SDS011;15328;50.860;10.562;2023-09-18T20:17:51;1.27;;;0.60;;
27999;SDS011;15328;50.860;10.562;2023-09-18T20:22:52;1.38;;;0.80;;
27999;SDS011;15328;50.860;10.562;2023-09-18T20:27:52;1.60;;;0.87;;
27999;SDS011;15328;50.860;10.562;2023-09-18T20:32:52;2.97;;;1.13;;
27999;SDS011;15328;50.860;10.562;2023-09-18T20:37:53;2.50;;;1.00;;
27999;SDS011;15328;50.860;10.562;2023-09-18T20:42:53;1.90;;;1.00;;
27999;SDS011;15328;50.860;10.562;2023-09-18T20:47:53;1.25;;;0.80;;
27999;SDS011;15328;50.860;10.562;2023-09-18T20:52:54;2.63;;;1.00;;
27999;SDS011;15328;50.860;10.562;2023-09-18T20:57:54;2.03;;;0.90;;
27999;SDS011;15328;50.860;10.562;2023-09-18T21:02:55;1.92;;;1.00;;
27999;SDS011;15328;50.860;10.562;2023-09-18T21:07:55;3.63;;;1.10;;
27999;SDS011;15328;50.860;10.562;2023-09-18T21:12:56;2.90;;;1.20;;
27999;SDS011;15328;50.860;10.562;2023-09-18T21:17:56;2.75;;;1.10;;
27999;SDS011;15328;50.860;10.562;2023-09-18T21:23:00;3.83;;;1.30;;
27999;SDS011;15328;50.860;10.562;2023-09-18T21:28:03;2.22;;;1.00;;
27999;SDS011;15328;50.860;10.562;2023-09-18T21:33:04;2.05;;;1.27;;
27999;SDS011;15328;50.860;10.562;2023-09-18T21:38:05;1.50;;;0.90;;
27999;SDS011;15328;50.860;10.562;2023-09-18T21:43:05;2.03;;;1.07;;
27999;SDS011;15328;50.860;10.562;2023-09-18T21:48:06;2.28;;;1.10;;
27999;SDS011;15328;50.860;10.562;2023-09-18T21:53:06;3.28;;;1.55;;
27999;SDS011;15328;50.860;10.562;2023-09-18T21:58:07;4.75;;;1.38;;
27999;SDS011;15328;50.860;10.562;2023-09-18T22:03:08;2.22;;;1.13;;
27999;SDS011;15328;50.860;10.562;2023-09-18T22:08:08;3.85;;;1.50;;
27999;SDS011;15328;50.860;10.562;2023-09-18T22:13:09;1.83;;;1.13;;
27999;SDS011;15328;50.860;10.562;2023-09-18T22:18:11;2.03;;;1.00;;
27999;SDS011;15328;50.860;10.562;2023-09-18T22:23:12;2.08;;;1.05;;
27999;SDS011;15328;50.860;10.562;2023-09-18T22:28:13;4.55;;;1.48;;
27999;SDS011;15328;50.860;10.562;2023-09-18T22:33:15;3.20;;;1.35;;
27999;SDS011;15328;50.860;10.562;2023-09-18T22:55:05;2.50;;;1.02;;
27999;SDS011;15328;50.860;10.562;2023-09-18T23:00:07;2.20;;;1.27;;
27999;SDS011;15328;50.860;10.562;2023-09-18T23:11:05;2.72;;;1.17;;
27999;SDS011;15328;50.860;10.562;2023-09-18T23:16:05;3.35;;;1.40;;
27999;SDS011;15328;50.860;10.562;2023-09-18T23:21:05;2.60;;;1.27;;
27999;SDS011;15328;50.860;10.562;2023-09-18T23:26:06;3.15;;;1.20;;
27999;SDS011;15328;50.860;10.562;2023-09-18T23:31:08;2.22;;;1.15;;
27999;SDS011;15328;50.860;10.562;2023-09-18T23:36:10;2.05;;;1.20;;
27999;SDS011;15328;50.860;10.562;2023-09-18T23:41:12;1.92;;;1.27;;
27999;SDS011;15328;50.860;10.562;2023-09-18T23:46:14;2.17;;;1.30;;
27999;SDS011;15328;50.860;10.562;2023-09-18T23:51:18;2.05;;;1.08;;
27999;SDS011;15328;50.860;10.562;2023-09-18T23:56:19;2.45;;;1.20;;
